createdAt,value
2023-02-09T00:01:32.082Z,79812.88
2023-02-09T00:03:05.130Z,79848.50
2023-02-09T00:04:38.183Z,79844.56
2023-02-09T00:06:14.747Z,79854.44
2023-02-09T00:07:47.874Z,79854.44
2023-02-09T00:09:20.899Z,79876.22
2023-02-09T00:10:53.887Z,79901.94
2023-02-09T00:12:45.523Z,79888.09
2023-02-09T00:14:21.942Z,79894.03
2023-02-09T00:16:03.666Z,79890.06
2023-02-09T00:17:37.437Z,79907.88
2023-02-09T00:19:11.888Z,79973.19
2023-02-09T00:20:45.239Z,79913.81
2023-02-09T00:22:18.424Z,79923.72
2023-02-09T00:23:51.408Z,79913.81
2023-02-09T00:25:24.491Z,79903.91
2023-02-09T00:26:57.455Z,79907.88
2023-02-09T00:28:31.053Z,79915.78
2023-02-09T00:30:05.112Z,79921.72
2023-02-09T00:31:38.408Z,79919.75
2023-02-09T00:33:11.518Z,79931.63
2023-02-09T00:34:44.475Z,79923.72
2023-02-09T00:36:17.999Z,79911.84
2023-02-09T00:37:59.729Z,79892.06
2023-02-09T00:39:32.686Z,79882.16
2023-02-09T00:41:06.227Z,79945.47
2023-02-09T00:42:39.200Z,79872.25
2023-02-09T00:44:13.075Z,79860.38
2023-02-09T00:45:45.988Z,79854.44
2023-02-09T00:47:19.038Z,79838.63
2023-02-09T00:48:52.237Z,79826.75
2023-02-09T00:50:25.844Z,79830.69
2023-02-09T00:51:58.922Z,79820.81
2023-02-09T00:53:32.210Z,79804.97
2023-02-09T00:55:06.001Z,79787.16
2023-02-09T00:56:38.825Z,79777.28
2023-02-09T00:58:12.186Z,79769.34
2023-02-09T00:59:45.198Z,79761.44
2023-02-09T01:01:18.325Z,79745.59
2023-02-09T01:02:51.118Z,79735.72
2023-02-09T01:04:24.099Z,79717.91
2023-02-09T01:06:00.205Z,79749.56
2023-02-09T01:07:34.027Z,79698.09
2023-02-09T01:09:07.025Z,79700.09
2023-02-09T01:10:40.156Z,79698.09
2023-02-09T01:12:13.403Z,79822.78
2023-02-09T01:13:47.779Z,79686.25
2023-02-09T01:15:20.972Z,79686.25
2023-02-09T01:16:54.037Z,79698.09
2023-02-09T01:18:26.912Z,79674.38
2023-02-09T01:20:01.184Z,79678.31
2023-02-09T01:21:34.014Z,79674.38
2023-02-09T01:23:08.148Z,79670.41
2023-02-09T01:24:41.365Z,79654.56
2023-02-09T01:26:15.991Z,79664.47
2023-02-09T01:27:48.902Z,79668.44
2023-02-09T01:29:22.025Z,79664.47
2023-02-09T01:30:55.202Z,79668.44
2023-02-09T01:32:28.405Z,79670.41
2023-02-09T01:34:03.672Z,79826.75
2023-02-09T01:35:36.559Z,79709.97
2023-02-09T01:37:09.713Z,79674.38
2023-02-09T01:38:42.741Z,79680.28
2023-02-09T01:40:15.595Z,79678.31
2023-02-09T01:41:48.416Z,79684.25
2023-02-09T01:43:21.814Z,79686.25
2023-02-09T01:45:04.830Z,79680.28
2023-02-09T01:46:38.710Z,79692.16
2023-02-09T01:48:13.930Z,79698.09
2023-02-09T01:49:51.695Z,79684.25
2023-02-09T01:51:25.918Z,79824.75
2023-02-09T01:52:58.907Z,79706.03
2023-02-09T01:54:45.582Z,79765.41
2023-02-09T01:56:24.519Z,79702.06
2023-02-09T01:58:16.327Z,79702.06
2023-02-09T01:59:55.258Z,79704.03
2023-02-09T02:01:28.169Z,79698.09
2023-02-09T02:03:09.808Z,79704.03
2023-02-09T02:04:44.664Z,79713.94
2023-02-09T02:06:19.468Z,79704.03
2023-02-09T02:08:27.110Z,79690.19
2023-02-09T02:10:01.537Z,79688.22
2023-02-09T02:11:36.222Z,79692.16
2023-02-09T02:13:09.612Z,79690.19
2023-02-09T02:14:42.575Z,79696.13
2023-02-09T02:17:04.106Z,79698.09
2023-02-09T02:19:01.797Z,79700.09
2023-02-09T02:21:02.022Z,79713.94
2023-02-09T02:22:47.010Z,79725.81
2023-02-09T02:24:34.974Z,79735.72
2023-02-09T02:26:29.373Z,79741.66
2023-02-09T02:28:20.192Z,79731.75
2023-02-09T02:30:03.322Z,79741.66
2023-02-09T02:31:57.561Z,79749.56
2023-02-09T02:33:48.867Z,79761.44
2023-02-09T02:35:30.781Z,79769.34
2023-02-09T02:37:19.057Z,79789.13
2023-02-09T02:38:55.016Z,79777.28
2023-02-09T02:40:55.331Z,79773.31
2023-02-09T02:42:53.188Z,79781.22
2023-02-09T02:44:30.257Z,79801.00
2023-02-09T02:46:10.163Z,79799.03
2023-02-09T02:47:51.125Z,79797.06
2023-02-09T02:49:40.118Z,79797.06
2023-02-09T02:51:21.965Z,79803.00
2023-02-09T02:52:57.878Z,79808.94
2023-02-09T02:54:38.654Z,79808.94
2023-02-09T02:56:19.020Z,79814.88
2023-02-09T02:57:56.719Z,79868.31
2023-02-09T02:59:38.254Z,79799.03
2023-02-09T03:01:15.229Z,79797.06
2023-02-09T03:02:53.765Z,79806.94
2023-02-09T03:04:32.935Z,79803.00
2023-02-09T03:06:07.629Z,79850.50
2023-02-09T03:07:40.481Z,79791.13
2023-02-09T03:09:13.549Z,79769.34
2023-02-09T03:10:47.023Z,79777.28
2023-02-09T03:12:34.244Z,79773.31
2023-02-09T03:14:25.096Z,79769.34
2023-02-09T03:16:13.200Z,79779.25
2023-02-09T03:18:04.353Z,79773.31
2023-02-09T03:20:02.985Z,79769.34
2023-02-09T03:22:02.811Z,79779.25
2023-02-09T03:23:40.110Z,79777.28
2023-02-09T03:25:27.311Z,79781.22
2023-02-09T03:27:26.023Z,79781.22
2023-02-09T03:29:00.602Z,79781.22
2023-02-09T03:30:36.252Z,79783.19
2023-02-09T03:32:09.704Z,79783.19
2023-02-09T03:33:43.339Z,79779.25
2023-02-09T03:35:20.376Z,79781.22
2023-02-09T03:36:56.036Z,79769.34
2023-02-09T03:38:29.365Z,79763.41
2023-02-09T03:40:02.433Z,79753.53
2023-02-09T03:41:35.277Z,79765.41
2023-02-09T03:43:08.307Z,79749.56
2023-02-09T03:44:41.369Z,79745.59
2023-02-09T03:46:14.203Z,79745.59
2023-02-09T03:47:47.337Z,79753.53
2023-02-09T03:49:20.261Z,79749.56
2023-02-09T03:50:53.338Z,79747.59
2023-02-09T03:52:26.455Z,79745.59
2023-02-09T03:53:59.412Z,79733.72
2023-02-09T03:55:32.884Z,79717.91
2023-02-09T03:57:06.762Z,79721.84
2023-02-09T03:58:39.605Z,79713.94
2023-02-09T04:00:13.306Z,79708.00
2023-02-09T04:01:48.699Z,79694.16
2023-02-09T04:03:21.921Z,79747.59
2023-02-09T04:04:54.748Z,79676.34
2023-02-09T04:06:28.862Z,79660.50
2023-02-09T04:08:01.924Z,79646.66
2023-02-09T04:09:35.345Z,79644.69
2023-02-09T04:11:08.149Z,79658.53
2023-02-09T04:12:41.350Z,79664.47
2023-02-09T04:14:14.768Z,79700.09
2023-02-09T04:15:48.502Z,79644.69
2023-02-09T04:17:21.372Z,79644.69
2023-02-09T04:18:54.435Z,79682.28
2023-02-09T04:20:27.384Z,79735.72
2023-02-09T04:22:01.263Z,79662.50
2023-02-09T04:23:36.164Z,79664.47
2023-02-09T04:25:09.381Z,79650.63
2023-02-09T04:26:42.332Z,79646.66
2023-02-09T04:28:15.507Z,79626.88
2023-02-09T04:29:48.593Z,79618.94
2023-02-09T04:31:21.744Z,79626.88
2023-02-09T04:32:54.756Z,79626.88
2023-02-09T04:34:27.740Z,79634.78
2023-02-09T04:36:00.737Z,79603.13
2023-02-09T04:37:33.930Z,79644.69
2023-02-09T04:39:06.912Z,79591.25
2023-02-09T04:40:40.098Z,79597.19
2023-02-09T04:42:13.124Z,79615.00
2023-02-09T04:43:48.924Z,79593.22
2023-02-09T04:45:21.990Z,79589.28
2023-02-09T04:46:55.085Z,79575.41
2023-02-09T04:48:29.928Z,79575.41
2023-02-09T04:50:02.905Z,79575.41
2023-02-09T04:51:36.058Z,79555.63
2023-02-09T04:53:09.546Z,79563.53
2023-02-09T04:54:42.688Z,79559.59
2023-02-09T04:56:16.679Z,79541.78
2023-02-09T04:58:07.948Z,79537.81
2023-02-09T04:59:41.859Z,79525.94
2023-02-09T05:01:21.405Z,79476.47
2023-02-09T05:02:55.694Z,79456.69
2023-02-09T05:04:28.830Z,79492.31
2023-02-09T05:06:05.071Z,79446.78
2023-02-09T05:07:37.969Z,79458.66
2023-02-09T05:09:11.086Z,79462.63
2023-02-09T05:10:44.296Z,79448.78
2023-02-09T05:12:17.471Z,79448.78
2023-02-09T05:13:50.263Z,79452.72
2023-02-09T05:15:23.201Z,79432.94
2023-02-09T05:16:56.259Z,79413.16
2023-02-09T05:18:29.311Z,79436.91
2023-02-09T05:20:02.520Z,79549.69
2023-02-09T05:21:35.475Z,79440.84
2023-02-09T05:23:08.506Z,79428.97
2023-02-09T05:24:41.613Z,79405.25
2023-02-09T05:26:14.719Z,79411.19
2023-02-09T05:27:47.715Z,79385.44
2023-02-09T05:29:22.273Z,79379.50
2023-02-09T05:30:55.214Z,79371.59
2023-02-09T05:32:28.276Z,79359.72
2023-02-09T05:34:01.449Z,79337.97
2023-02-09T05:35:34.736Z,79409.19
2023-02-09T05:37:07.581Z,79349.84
2023-02-09T05:38:40.744Z,79341.91
2023-02-09T05:40:13.978Z,79345.88
2023-02-09T05:42:05.332Z,79349.84
2023-02-09T05:43:38.881Z,79334.00
2023-02-09T05:45:12.046Z,79343.91
2023-02-09T05:46:45.084Z,79320.16
2023-02-09T05:48:18.285Z,79322.13
2023-02-09T05:49:52.170Z,79306.31
2023-02-09T05:51:25.227Z,79280.56
2023-02-09T05:53:00.913Z,79282.56
2023-02-09T05:54:34.626Z,79298.38
2023-02-09T05:56:07.655Z,79292.44
2023-02-09T05:57:40.571Z,79300.38
2023-02-09T05:59:13.455Z,79270.69
2023-02-09T06:00:46.785Z,79252.88
2023-02-09T06:02:20.441Z,79250.91
2023-02-09T06:03:53.437Z,79242.97
2023-02-09T06:05:26.988Z,79244.97
2023-02-09T06:07:00.303Z,79239.03
2023-02-09T06:08:33.255Z,79244.97
2023-02-09T06:10:06.417Z,79215.28
2023-02-09T06:11:39.513Z,79233.09
2023-02-09T06:13:12.600Z,79219.25
2023-02-09T06:14:45.593Z,79215.28
2023-02-09T06:16:18.744Z,79209.34
2023-02-09T06:17:51.541Z,79209.34
2023-02-09T06:19:24.545Z,79191.53
2023-02-09T06:20:57.530Z,79193.50
2023-02-09T06:22:31.944Z,79181.63
2023-02-09T06:24:05.114Z,79191.53
2023-02-09T06:25:40.261Z,79161.84
2023-02-09T06:27:13.879Z,79159.88
2023-02-09T06:28:47.385Z,79136.13
2023-02-09T06:30:20.687Z,79146.03
2023-02-09T06:31:53.767Z,79130.19
2023-02-09T06:33:26.745Z,79159.88
2023-02-09T06:34:59.788Z,79142.06
2023-02-09T06:36:32.981Z,79140.09
2023-02-09T06:38:06.094Z,79128.22
2023-02-09T06:39:38.987Z,79136.13
2023-02-09T06:41:12.085Z,79144.03
2023-02-09T06:42:45.091Z,79116.34
2023-02-09T06:44:18.279Z,79124.25
2023-02-09T06:45:51.353Z,79114.38
2023-02-09T06:47:24.353Z,79092.59
2023-02-09T06:48:58.679Z,79096.56
2023-02-09T06:50:33.047Z,79098.53
2023-02-09T06:52:06.227Z,79090.63
2023-02-09T06:53:40.071Z,79088.66
2023-02-09T06:55:13.626Z,79086.66
2023-02-09T06:56:46.825Z,79057.00
2023-02-09T06:58:20.052Z,79049.06
2023-02-09T06:59:52.998Z,79053.03
2023-02-09T07:01:25.914Z,79037.19
2023-02-09T07:02:59.690Z,79009.50
2023-02-09T07:04:32.834Z,79025.31
2023-02-09T07:06:08.216Z,79033.25
2023-02-09T07:07:41.956Z,79025.31
2023-02-09T07:09:15.056Z,79049.06
2023-02-09T07:10:48.117Z,79019.41
2023-02-09T07:12:21.081Z,79019.41
2023-02-09T07:13:54.045Z,79025.31
2023-02-09T07:15:27.007Z,79005.53
2023-02-09T07:17:00.110Z,79015.44
2023-02-09T07:18:33.843Z,79096.56
2023-02-09T07:20:07.727Z,79029.28
2023-02-09T07:21:40.886Z,79019.41
2023-02-09T07:23:13.853Z,79047.09
2023-02-09T07:24:46.990Z,79021.38
2023-02-09T07:26:20.198Z,79035.22
2023-02-09T07:27:53.178Z,79023.34
2023-02-09T07:29:26.422Z,79011.47
2023-02-09T07:31:05.484Z,79041.16
2023-02-09T07:32:40.193Z,79060.94
2023-02-09T07:34:13.164Z,79047.09
2023-02-09T07:35:47.241Z,79025.31
2023-02-09T07:37:20.326Z,79029.28
2023-02-09T07:38:53.273Z,79001.59
2023-02-09T07:40:26.395Z,79092.59
2023-02-09T07:41:59.477Z,78997.63
2023-02-09T07:43:47.524Z,78991.69
2023-02-09T07:45:20.496Z,79033.25
2023-02-09T07:46:53.642Z,79017.41
2023-02-09T07:48:26.795Z,78985.75
2023-02-09T07:49:59.643Z,78983.78
2023-02-09T07:51:34.296Z,79021.38
2023-02-09T07:53:08.167Z,78997.63
2023-02-09T07:54:41.388Z,78991.69
2023-02-09T07:56:14.440Z,78985.75
2023-02-09T07:57:47.833Z,78997.63
2023-02-09T07:59:20.953Z,78932.34
2023-02-09T08:00:54.465Z,78922.44
2023-02-09T08:02:35.956Z,78934.31
2023-02-09T08:04:08.899Z,78922.44
2023-02-09T08:06:21.803Z,78874.97
2023-02-09T08:07:56.590Z,78888.81
2023-02-09T08:09:29.771Z,78855.16
2023-02-09T08:11:05.789Z,78950.16
2023-02-09T08:12:58.212Z,78967.94
2023-02-09T08:14:43.170Z,78882.88
2023-02-09T08:16:20.110Z,78882.88
2023-02-09T08:17:57.799Z,78863.09
2023-02-09T08:19:30.900Z,78872.97
2023-02-09T08:21:06.753Z,78874.97
2023-02-09T08:22:45.566Z,78950.16
2023-02-09T08:24:20.903Z,78950.16
2023-02-09T08:25:54.989Z,78928.38
2023-02-09T08:27:28.297Z,78914.53
2023-02-09T08:29:01.307Z,78896.72
2023-02-09T08:30:35.062Z,78898.69
2023-02-09T08:32:08.536Z,78928.38
2023-02-09T08:33:42.411Z,78944.22
2023-02-09T08:35:15.618Z,78981.81
2023-02-09T08:36:48.775Z,78938.28
2023-02-09T08:38:21.948Z,78952.13
2023-02-09T08:39:55.009Z,78958.06
2023-02-09T08:41:28.231Z,78971.91
2023-02-09T08:43:01.544Z,78989.72
2023-02-09T08:44:34.946Z,78914.53
2023-02-09T08:46:10.429Z,78894.75
2023-02-09T08:47:43.369Z,78894.75
2023-02-09T08:49:16.307Z,78954.09
2023-02-09T08:50:49.289Z,78969.94
2023-02-09T08:52:22.301Z,78958.06
2023-02-09T08:53:55.320Z,78956.06
2023-02-09T08:55:28.932Z,78973.88
2023-02-09T08:57:02.622Z,78958.06
2023-02-09T08:58:35.531Z,78995.66
2023-02-09T09:00:08.927Z,78965.97
2023-02-09T09:01:42.801Z,78975.88
2023-02-09T09:03:15.865Z,78991.69
2023-02-09T09:04:48.794Z,79023.34
2023-02-09T09:06:23.298Z,78989.72
2023-02-09T09:07:56.185Z,78971.91
2023-02-09T09:09:29.328Z,78973.88
2023-02-09T09:11:02.634Z,78981.81
2023-02-09T09:12:36.209Z,78997.63
2023-02-09T09:14:09.176Z,79003.56
2023-02-09T09:15:43.634Z,78962.00
2023-02-09T09:17:16.767Z,78967.94
2023-02-09T09:18:50.764Z,78997.63
2023-02-09T09:20:23.689Z,78973.88
2023-02-09T09:21:58.703Z,78993.66
2023-02-09T09:23:31.597Z,78938.28
2023-02-09T09:25:05.763Z,78967.94
2023-02-09T09:26:38.654Z,79009.50
2023-02-09T09:28:11.808Z,79007.53
2023-02-09T09:29:44.849Z,79064.91
2023-02-09T09:31:19.263Z,79019.41
2023-02-09T09:32:53.084Z,79009.50
2023-02-09T09:34:26.689Z,78993.66
2023-02-09T09:36:01.466Z,79039.19
2023-02-09T09:37:34.613Z,79086.66
2023-02-09T09:39:07.669Z,79045.13
2023-02-09T09:40:42.365Z,79013.47
2023-02-09T09:42:25.929Z,79003.56
2023-02-09T09:44:00.740Z,79001.59
2023-02-09T09:45:38.387Z,79001.59
2023-02-09T09:47:19.442Z,79015.44
2023-02-09T09:48:55.249Z,79064.91
2023-02-09T09:50:36.866Z,79053.03
2023-02-09T09:52:17.996Z,79053.03
2023-02-09T09:53:55.043Z,79041.16
2023-02-09T09:55:31.272Z,79080.72
2023-02-09T09:57:12.858Z,79072.81
2023-02-09T09:58:46.487Z,79041.16
2023-02-09T10:00:27.037Z,79035.22
2023-02-09T10:02:04.056Z,79058.97
2023-02-09T10:03:37.247Z,79029.28
2023-02-09T10:05:16.284Z,79013.47
2023-02-09T10:07:03.110Z,79013.47
2023-02-09T10:08:44.025Z,78965.97
2023-02-09T10:10:34.203Z,78989.72
2023-02-09T10:12:30.159Z,78981.81
2023-02-09T10:14:03.574Z,78965.97
2023-02-09T10:15:37.406Z,78965.97
2023-02-09T10:17:10.922Z,78971.91
2023-02-09T10:18:44.857Z,79029.28
2023-02-09T10:20:17.964Z,79011.47
2023-02-09T10:21:51.372Z,79033.25
2023-02-09T10:23:49.646Z,79005.53
2023-02-09T10:26:01.068Z,78962.00
2023-02-09T10:27:34.383Z,79033.25
2023-02-09T10:29:13.433Z,79005.53
2023-02-09T10:30:47.766Z,78977.84
2023-02-09T10:32:39.960Z,78965.97
2023-02-09T10:34:18.597Z,78995.66
2023-02-09T10:35:55.491Z,78975.88
2023-02-09T10:37:35.359Z,79031.25
2023-02-09T10:39:19.461Z,79021.38
2023-02-09T10:40:52.694Z,79019.41
2023-02-09T10:42:37.833Z,79013.47
2023-02-09T10:44:38.178Z,79005.53
2023-02-09T10:46:21.320Z,79005.53
2023-02-09T10:48:00.842Z,78993.66
2023-02-09T10:49:36.493Z,79009.50
2023-02-09T10:51:13.932Z,79047.09
2023-02-09T10:53:03.456Z,79005.53
2023-02-09T10:54:41.439Z,78995.66
2023-02-09T10:56:21.408Z,78981.81
2023-02-09T10:58:05.640Z,78973.88
2023-02-09T10:59:41.727Z,78946.19
2023-02-09T11:01:23.094Z,78938.28
2023-02-09T11:03:04.384Z,78906.63
2023-02-09T11:04:40.210Z,78920.47
2023-02-09T11:06:20.267Z,78908.59
2023-02-09T11:08:17.289Z,78934.31
2023-02-09T11:09:53.065Z,78967.94
2023-02-09T11:11:36.250Z,78989.72
2023-02-09T11:13:26.246Z,79013.47
2023-02-09T11:14:59.205Z,79041.16
2023-02-09T11:16:47.222Z,79047.09
2023-02-09T11:18:26.721Z,79045.13
2023-02-09T11:20:12.621Z,79039.19
2023-02-09T11:22:08.806Z,79037.19
2023-02-09T11:24:01.297Z,79128.22
2023-02-09T11:26:02.432Z,79082.72
2023-02-09T11:28:13.760Z,79066.88
2023-02-09T11:30:04.889Z,79058.97
2023-02-09T11:32:08.784Z,79057.00
2023-02-09T11:33:47.888Z,79058.97
2023-02-09T11:35:27.205Z,79049.06
2023-02-09T11:37:27.528Z,79045.13
2023-02-09T11:39:03.761Z,79043.13
2023-02-09T11:40:51.686Z,79047.09
2023-02-09T11:42:45.464Z,79013.47
2023-02-09T11:44:45.286Z,79049.06
2023-02-09T11:46:22.644Z,79041.16
2023-02-09T11:48:14.651Z,79033.25
2023-02-09T11:49:54.242Z,79013.47
2023-02-09T11:51:27.613Z,79051.06
2023-02-09T11:53:05.844Z,79019.41
2023-02-09T11:54:40.097Z,79019.41
2023-02-09T11:56:16.298Z,79086.66
2023-02-09T11:57:56.129Z,78989.72
2023-02-09T11:59:41.024Z,78989.72
2023-02-09T12:01:24.578Z,78971.91
2023-02-09T12:03:15.856Z,78991.69
2023-02-09T12:04:55.671Z,78975.88
2023-02-09T12:06:34.313Z,78997.63
2023-02-09T12:08:13.608Z,78995.66
2023-02-09T12:10:07.259Z,79005.53
2023-02-09T12:11:50.290Z,78995.66
2023-02-09T12:13:49.603Z,78993.66
2023-02-09T12:15:28.503Z,78999.59
2023-02-09T12:17:19.318Z,79053.03
2023-02-09T12:18:55.783Z,79019.41
2023-02-09T12:20:37.802Z,79025.31
2023-02-09T12:22:35.786Z,79011.47
2023-02-09T12:24:32.987Z,79011.47
2023-02-09T12:26:12.228Z,79009.50
2023-02-09T12:28:11.014Z,79025.31
2023-02-09T12:29:44.275Z,79041.16
2023-02-09T12:31:20.446Z,79029.28
2023-02-09T12:33:29.204Z,79047.09
2023-02-09T12:35:27.400Z,79049.06
2023-02-09T12:37:28.818Z,79068.84
2023-02-09T12:39:08.427Z,79066.88
2023-02-09T12:40:41.597Z,79082.72
2023-02-09T12:42:14.457Z,79070.84
2023-02-09T12:43:48.403Z,79058.97
2023-02-09T12:45:38.264Z,79047.09
2023-02-09T12:47:45.268Z,79043.13
2023-02-09T12:49:38.872Z,79057.00
2023-02-09T12:51:37.736Z,79064.91
2023-02-09T12:53:22.857Z,79080.72
2023-02-09T12:54:59.910Z,79092.59
2023-02-09T12:56:34.060Z,79096.56
2023-02-09T12:58:35.631Z,79086.66
2023-02-09T13:00:28.964Z,79084.69
2023-02-09T13:02:48.746Z,79090.63
2023-02-09T13:04:23.894Z,79086.66
2023-02-09T13:06:00.225Z,79086.66
2023-02-09T13:07:40.582Z,79094.59
2023-02-09T13:09:37.935Z,79090.63
2023-02-09T13:11:33.189Z,79098.53
2023-02-09T13:13:12.030Z,79104.47
2023-02-09T13:14:50.083Z,79102.50
2023-02-09T13:16:22.994Z,79092.59
2023-02-09T13:18:25.689Z,79084.69
2023-02-09T13:20:04.561Z,79112.38
2023-02-09T13:21:52.579Z,79128.22
2023-02-09T13:23:42.701Z,79140.09
2023-02-09T13:25:30.631Z,79149.97
2023-02-09T13:27:16.406Z,79151.97
2023-02-09T13:28:49.948Z,79258.81
2023-02-09T13:30:27.856Z,79163.84
2023-02-09T13:32:12.670Z,79187.56
2023-02-09T13:33:51.639Z,79183.63
2023-02-09T13:35:40.807Z,79183.63
2023-02-09T13:37:32.243Z,79187.56
2023-02-09T13:39:09.476Z,79177.69
2023-02-09T13:40:48.436Z,79175.72
2023-02-09T13:42:24.506Z,79183.63
2023-02-09T13:43:57.541Z,79191.53
2023-02-09T13:45:31.091Z,79195.50
2023-02-09T13:47:08.130Z,79195.50
2023-02-09T13:48:41.551Z,79197.47
2023-02-09T13:50:20.273Z,79266.72
2023-02-09T13:52:38.611Z,79209.34
2023-02-09T13:54:20.221Z,79215.28
2023-02-09T13:55:56.450Z,79207.38
2023-02-09T13:57:36.423Z,79209.34
2023-02-09T13:59:17.832Z,79207.38
2023-02-09T14:01:01.234Z,79191.53
2023-02-09T14:02:36.192Z,79203.41
2023-02-09T14:04:14.465Z,79213.31
2023-02-09T14:06:09.396Z,79211.31
2023-02-09T14:07:42.508Z,79207.38
2023-02-09T14:09:24.565Z,79211.31
2023-02-09T14:11:41.414Z,79219.25
2023-02-09T14:13:30.295Z,79266.72
2023-02-09T14:15:21.944Z,79219.25
2023-02-09T14:17:28.530Z,79211.31
2023-02-09T14:19:02.251Z,79219.25
2023-02-09T14:20:35.489Z,79219.25
2023-02-09T14:22:32.467Z,79199.44
2023-02-09T14:24:19.074Z,79203.41
2023-02-09T14:26:23.402Z,79199.44
2023-02-09T14:27:57.438Z,79203.41
2023-02-09T14:29:32.715Z,79195.50
2023-02-09T14:31:07.573Z,79191.53
2023-02-09T14:32:45.660Z,79203.41
2023-02-09T14:34:32.674Z,79290.47
2023-02-09T14:36:07.823Z,79217.25
2023-02-09T14:37:41.745Z,79242.97
2023-02-09T14:39:17.506Z,79268.72
2023-02-09T14:40:50.605Z,79219.25
2023-02-09T14:42:24.500Z,79203.41
2023-02-09T14:44:20.716Z,79207.38
2023-02-09T14:46:01.954Z,79203.41
2023-02-09T14:47:40.782Z,79195.50
2023-02-09T14:49:13.633Z,79211.31
2023-02-09T14:50:47.033Z,79215.28
2023-02-09T14:52:20.132Z,79199.44
2023-02-09T14:53:53.494Z,79207.38
2023-02-09T14:55:29.070Z,79191.53
2023-02-09T14:57:03.908Z,79195.50
2023-02-09T14:58:37.122Z,79195.50
2023-02-09T15:00:17.666Z,79195.50
2023-02-09T15:01:54.064Z,79195.50
2023-02-09T15:03:27.393Z,79330.03
2023-02-09T15:05:02.211Z,79318.16
2023-02-09T15:06:36.305Z,79223.19
2023-02-09T15:08:14.686Z,79225.16
2023-02-09T15:09:49.621Z,79219.25
2023-02-09T15:11:43.073Z,79201.44
2023-02-09T15:13:16.920Z,79203.41
2023-02-09T15:14:51.456Z,79207.38
2023-02-09T15:16:24.926Z,79209.34
2023-02-09T15:18:00.257Z,79225.16
2023-02-09T15:19:33.285Z,79227.16
2023-02-09T15:21:06.478Z,79227.16
2023-02-09T15:22:39.520Z,79221.22
2023-02-09T15:24:12.755Z,79215.28
2023-02-09T15:25:46.456Z,79217.25
2023-02-09T15:27:42.475Z,79223.19
2023-02-09T15:29:17.244Z,79262.78
2023-02-09T15:30:50.109Z,79227.16
2023-02-09T15:32:24.453Z,79215.28
2023-02-09T15:33:57.478Z,79223.19
2023-02-09T15:35:30.756Z,79211.31
2023-02-09T15:37:03.712Z,79219.25
2023-02-09T15:38:37.196Z,79215.28
2023-02-09T15:40:13.080Z,79235.06
2023-02-09T15:42:04.684Z,79242.97
2023-02-09T15:43:56.078Z,79241.00
2023-02-09T15:45:48.755Z,79227.16
2023-02-09T15:47:40.802Z,79223.19
2023-02-09T15:49:13.868Z,79225.16
2023-02-09T15:50:51.003Z,79256.84
2023-02-09T15:52:24.758Z,79233.09
2023-02-09T15:54:01.326Z,79248.91
2023-02-09T15:55:36.773Z,79268.72
2023-02-09T15:57:12.780Z,79318.16
2023-02-09T15:58:46.803Z,79290.47
2023-02-09T16:00:26.245Z,79280.56
2023-02-09T16:02:00.372Z,79272.66
2023-02-09T16:03:33.852Z,79264.75
2023-02-09T16:05:07.283Z,79270.69
2023-02-09T16:06:40.986Z,79258.81
2023-02-09T16:08:20.154Z,79254.84
2023-02-09T16:09:54.331Z,79262.78
2023-02-09T16:11:35.754Z,79272.66
2023-02-09T16:13:12.658Z,79288.50
2023-02-09T16:14:45.942Z,79290.47
2023-02-09T16:16:19.242Z,79276.63
2023-02-09T16:17:53.047Z,79276.63
2023-02-09T16:19:26.645Z,79270.69
2023-02-09T16:20:59.861Z,79290.47
2023-02-09T16:22:33.493Z,79367.63
2023-02-09T16:24:08.457Z,79284.53
2023-02-09T16:25:41.879Z,79254.84
2023-02-09T16:27:21.949Z,79258.81
2023-02-09T16:28:55.604Z,79278.59
2023-02-09T16:30:33.608Z,79288.50
2023-02-09T16:32:16.355Z,79290.47
2023-02-09T16:33:51.621Z,79330.03
2023-02-09T16:35:25.830Z,79288.50
2023-02-09T16:36:59.852Z,79274.63
2023-02-09T16:38:33.045Z,79343.91
2023-02-09T16:40:28.559Z,79274.63
2023-02-09T16:42:01.844Z,79286.50
2023-02-09T16:43:36.040Z,79298.38
2023-02-09T16:45:17.130Z,79290.47
2023-02-09T16:46:55.123Z,79294.44
2023-02-09T16:48:32.349Z,79286.50
2023-02-09T16:50:25.620Z,79278.59
2023-02-09T16:52:04.338Z,79266.72
2023-02-09T16:53:43.772Z,79260.78
2023-02-09T16:55:32.115Z,79314.22
2023-02-09T16:57:05.136Z,79256.84
2023-02-09T16:58:39.249Z,79266.72
2023-02-09T17:00:13.245Z,79274.63
2023-02-09T17:01:48.366Z,79278.59
2023-02-09T17:03:33.997Z,79306.31
2023-02-09T17:05:29.335Z,79266.72
2023-02-09T17:07:02.457Z,79254.84
2023-02-09T17:08:35.860Z,79248.91
2023-02-09T17:10:16.936Z,79272.66
2023-02-09T17:11:50.023Z,79246.94
2023-02-09T17:13:23.858Z,79248.91
2023-02-09T17:14:56.928Z,79256.84
2023-02-09T17:16:36.053Z,79250.91
2023-02-09T17:18:12.905Z,79274.63
2023-02-09T17:19:48.068Z,79223.19
2023-02-09T17:21:24.919Z,79227.16
2023-02-09T17:22:57.907Z,79242.97
2023-02-09T17:24:30.965Z,79227.16
2023-02-09T17:26:04.907Z,79225.16
2023-02-09T17:27:40.170Z,79227.16
2023-02-09T17:29:13.328Z,79235.06
2023-02-09T17:30:48.060Z,79246.94
2023-02-09T17:32:21.303Z,79250.91
2023-02-09T17:33:57.322Z,79239.03
2023-02-09T17:35:58.151Z,79233.09
2023-02-09T17:37:25.643Z,79239.03
2023-02-09T17:39:00.199Z,79246.94
2023-02-09T17:40:35.713Z,79254.84
2023-02-09T17:42:21.221Z,79252.88
2023-02-09T17:44:03.636Z,79250.91
2023-02-09T17:45:42.171Z,79252.88
2023-02-09T17:47:20.317Z,79282.56
2023-02-09T17:48:54.198Z,79296.41
2023-02-09T17:50:27.910Z,79244.97
2023-02-09T17:52:01.403Z,79250.91
2023-02-09T17:53:35.578Z,79254.84
2023-02-09T17:55:33.031Z,79300.38
2023-02-09T17:57:06.259Z,79258.81
2023-02-09T17:58:39.280Z,79264.75
2023-02-09T18:00:13.409Z,79272.66
2023-02-09T18:01:50.691Z,79284.53
2023-02-09T18:03:26.236Z,79282.56
2023-02-09T18:04:59.173Z,79290.47
2023-02-09T18:06:40.687Z,79268.72
2023-02-09T18:08:13.921Z,79274.63
2023-02-09T18:09:46.946Z,79286.50
2023-02-09T18:11:19.983Z,79292.44
2023-02-09T18:12:56.002Z,79302.34
2023-02-09T18:14:33.212Z,79302.34
2023-02-09T18:16:07.618Z,79298.38
2023-02-09T18:17:42.768Z,79298.38
2023-02-09T18:19:17.098Z,79294.44
2023-02-09T18:20:50.290Z,79290.47
2023-02-09T18:22:23.580Z,79288.50
2023-02-09T18:23:56.935Z,79290.47
2023-02-09T18:25:34.239Z,79302.34
2023-02-09T18:27:08.722Z,79306.31
2023-02-09T18:28:41.732Z,79294.44
2023-02-09T18:30:15.099Z,79357.75
2023-02-09T18:31:48.220Z,79294.44
2023-02-09T18:33:21.306Z,79298.38
2023-02-09T18:34:54.430Z,79292.44
2023-02-09T18:36:28.224Z,79290.47
2023-02-09T18:38:03.237Z,79286.50
2023-02-09T18:39:39.196Z,79286.50
2023-02-09T18:41:14.166Z,79286.50
2023-02-09T18:42:47.482Z,79300.38
2023-02-09T18:44:29.397Z,79292.44
2023-02-09T18:46:04.205Z,79298.38
2023-02-09T18:47:37.728Z,79310.25
2023-02-09T18:49:12.903Z,79417.13
2023-02-09T18:50:45.949Z,79310.25
2023-02-09T18:52:21.178Z,79308.28
2023-02-09T18:53:54.222Z,79306.31
2023-02-09T18:55:32.014Z,79316.19
2023-02-09T18:57:04.898Z,79314.22
2023-02-09T18:58:38.173Z,79304.31
2023-02-09T19:00:16.112Z,79302.34
2023-02-09T19:01:50.212Z,79306.31
2023-02-09T19:03:23.570Z,79314.22
2023-02-09T19:04:57.165Z,79322.13
2023-02-09T19:06:30.195Z,79322.13
2023-02-09T19:08:03.437Z,79320.16
2023-02-09T19:09:36.927Z,79326.09
2023-02-09T19:11:14.523Z,79322.13